Time;durP1;ratioP1;P1;durP2;ratioP2;P2;SDS_P1;SDS_P2;PMS_P1;PMS_P2;Temp;Humidity;BMP_temperature;BMP_pressure;BME280_temperature;BME280_humidity;BME280_pressure;Samples;Min_cycle;Max_cycle;Signal;HPM_P1;HPM_P2
2023/07/23 06:53:04;;;;;;;;;3.50;3.50;;;;;20.55;53.03;100742.91;5929173;23;45989;31
2023/07/23 10:56:50;;;;;;;;;3.00;2.25;;;;;21.65;56.83;100824.31;4908292;28;45743;-92
2023/07/23 10:59:21;;;;;;;;;6.25;5.25;;;;;21.58;57.68;100822.13;4895588;28;45523;-93
2023/07/23 11:01:50;;;;;;;;;5.75;5.50;;;;;21.51;57.46;100820.13;4912923;28;45591;-93
2023/07/23 11:04:23;;;;;;;;;5.00;4.00;;;;;21.42;57.78;100821.72;4898115;28;45435;-92
2023/07/23 11:07:06;;;;;;;;;4.25;4.25;;;;;21.40;58.50;100824.50;4897002;28;47244;-92
2023/07/23 11:09:35;;;;;;;;;5.00;4.50;;;;;21.38;58.95;100820.28;4909513;28;45568;-92
2023/07/23 11:12:05;;;;;;;;;7.25;6.00;;;;;21.30;58.93;100820.91;4910847;28;45507;-93
2023/07/23 11:14:30;;;;;;;;;5.25;4.75;;;;;21.28;59.04;100820.19;4911722;28;45521;-90
2023/07/23 11:17:00;;;;;;;;;4.00;4.00;;;;;21.28;58.82;100820.19;4894051;28;47503;-92
2023/07/23 11:19:26;;;;;;;;;5.00;5.00;;;;;21.26;59.44;100814.16;4894453;29;45477;-91
2023/07/23 11:22:04;;;;;;;;;4.50;4.50;;;;;21.25;60.28;100817.78;4907569;28;45444;-92
2023/07/23 11:24:33;;;;;;;;;4.00;4.00;;;;;21.22;60.40;100811.78;4915198;28;45540;-92
2023/07/23 11:27:03;;;;;;;;;6.00;3.75;;;;;21.21;60.09;100818.00;4916180;28;45477;-91
2023/07/23 11:29:30;;;;;;;;;4.00;4.00;;;;;21.20;59.46;100823.44;4923855;28;45382;-91
2023/07/23 11:31:56;;;;;;;;;3.00;3.00;;;;;21.20;59.85;100818.97;4896587;28;46628;-91
2023/07/23 11:34:23;;;;;;;;;3.75;3.75;;;;;21.25;60.10;100821.28;4899183;28;44944;-92
2023/07/23 11:36:52;;;;;;;;;3.00;3.00;;;;;21.23;60.50;100821.41;4898804;28;45953;-91
2023/07/23 11:39:19;;;;;;;;;3.50;3.50;;;;;21.21;60.85;100814.53;4900306;28;45431;-91
2023/07/23 11:41:45;;;;;;;;;3.75;3.75;;;;;21.21;60.66;100811.91;4899566;28;45479;-91
2023/07/23 11:44:11;;;;;;;;;5.00;4.00;;;;;21.26;60.66;100815.03;4914865;28;45938;-91
2023/07/23 11:46:39;;;;;;;;;3.50;2.00;;;;;21.30;60.67;100811.13;4897867;28;47117;-91
2023/07/23 11:49:09;;;;;;;;;4.75;4.00;;;;;21.34;60.75;100803.81;4914456;28;45568;-91
2023/07/23 11:51:37;;;;;;;;;4.00;4.00;;;;;21.42;60.66;100805.84;4899761;28;45463;-93
2023/07/23 11:54:11;;;;;;;;;5.00;4.00;;;;;21.47;60.63;100804.50;4899897;28;45485;-92
2023/07/23 11:56:46;;;;;;;;;4.25;3.00;;;;;21.53;60.54;100797.00;4916335;28;45523;-92
2023/07/23 11:59:13;;;;;;;;;5.50;4.50;;;;;21.61;60.64;100794.56;4918305;28;45461;-91
2023/07/23 12:01:39;;;;;;;;;2.00;2.00;;;;;21.70;61.20;100790.34;4915667;28;45600;-90
2023/07/23 12:04:06;;;;;;;;;6.75;5.75;;;;;21.77;60.28;100786.25;4910513;28;45421;-90
2023/07/23 12:06:38;;;;;;;;;3.75;3.75;;;;;21.87;59.79;100791.59;4916271;28;46691;-94
2023/07/23 12:09:11;;;;;;;;;4.33;3.33;;;;;21.95;59.71;100793.63;4903578;28;45532;-92
2023/07/23 12:11:39;;;;;;;;;3.50;3.50;;;;;21.97;59.20;100781.94;4904847;28;45427;-92
2023/07/23 12:14:08;;;;;;;;;5.00;5.00;;;;;22.02;59.49;100784.19;4921030;28;45517;-94
2023/07/23 12:16:33;;;;;;;;;5.75;5.00;;;;;22.06;59.90;100776.81;4919495;28;45582;-91
2023/07/23 12:19:04;;;;;;;;;5.75;5.00;;;;;22.07;59.84;100784.63;4918053;28;45300;-93
2023/07/23 12:21:31;;;;;;;;;4.50;4.25;;;;;22.12;59.84;100784.25;4903996;28;45335;-92
2023/07/23 12:24:13;;;;;;;;;5.33;5.00;;;;;22.14;59.71;100787.59;4904698;28;45340;-93
2023/07/23 12:26:39;;;;;;;;;5.50;4.25;;;;;22.15;59.52;100782.19;4880298;29;46112;-92
2023/07/23 12:29:06;;;;;;;;;3.25;2.75;;;;;22.18;59.73;100781.09;4863514;29;46343;-93
2023/07/23 12:31:39;;;;;;;;;6.00;5.50;;;;;22.21;59.45;100787.94;4875180;29;45616;-93
2023/07/23 12:34:06;;;;;;;;;6.50;6.50;;;;;22.24;59.40;100777.91;4871294;29;45600;-93
2023/07/23 12:37:15;;;;;;;;;4.25;4.25;;;;;22.23;59.44;100770.09;4830725;29;45621;-92
2023/07/23 12:39:41;;;;;;;;;6.00;6.00;;;;;22.26;59.34;100781.25;4797714;29;45671;-92
2023/07/23 12:42:06;;;;;;;;;7.50;6.75;;;;;22.29;59.22;100774.84;4798475;29;44909;-91
2023/07/23 12:44:41;;;;;;;;;5.25;5.25;;;;;22.29;59.01;100767.75;4799413;29;45480;-93
2023/07/23 12:47:15;;;;;;;;;5.75;5.50;;;;;22.30;59.72;100771.22;4787531;29;46854;-94
2023/07/23 12:49:41;;;;;;;;;5.75;5.00;;;;;22.32;59.07;100768.47;4816431;29;45451;-92
2023/07/23 12:52:09;;;;;;;;;7.25;6.25;;;;;22.37;59.07;100767.09;4816894;29;45767;-92
2023/07/23 12:54:35;;;;;;;;;5.25;5.00;;;;;22.43;59.16;100773.69;4815609;29;45839;-93
2023/07/23 12:57:02;;;;;;;;;6.25;6.25;;;;;22.48;59.38;100767.97;4799747;29;46250;-93
2023/07/23 13:02:39;;;;;;;;;5.25;5.25;;;;;22.65;58.98;100758.59;4856542;29;45592;-91
2023/07/23 13:05:05;;;;;;;;;5.00;4.25;;;;;22.80;59.39;100753.75;4871703;29;45518;-90
2023/07/23 13:07:30;;;;;;;;;4.33;3.67;;;;;22.95;58.88;100754.19;4867667;29;45983;-90
2023/07/23 13:09:56;;;;;;;;;5.00;4.67;;;;;23.12;58.32;100749.19;4857338;29;45435;-91
2023/07/23 13:12:21;;;;;;;;;3.33;3.33;;;;;23.26;58.12;100742.66;4856232;29;45622;-91
2023/07/23 13:14:46;;;;;;;;;2.67;2.67;;;;;23.37;57.24;100737.25;4858774;29;45541;-91
2023/07/23 13:17:12;;;;;;;;;7.67;6.00;;;;;23.51;57.00;100737.81;4859628;29;46943;-88
2023/07/23 13:19:37;;;;;;;;;3.33;3.33;;;;;23.61;56.44;100751.94;4859282;29;45483;-88
2023/07/23 13:22:03;;;;;;;;;4.00;4.00;;;;;23.68;56.26;100731.78;4860307;29;45225;-88
2023/07/23 13:24:29;;;;;;;;;4.67;4.00;;;;;23.74;55.88;100727.72;4841109;29;45548;-88
2023/07/23 13:26:54;;;;;;;;;5.00;5.00;;;;;23.78;55.59;100722.97;4857668;29;47013;-88
2023/07/23 13:29:19;;;;;;;;;3.00;3.00;;;;;23.82;55.02;100717.22;4860765;29;45553;-88
2023/07/23 13:31:45;;;;;;;;;5.67;5.67;;;;;23.86;55.28;100721.28;4847415;29;45586;-87
2023/07/23 13:34:10;;;;;;;;;5.00;4.67;;;;;23.86;54.64;100718.63;4867120;29;45605;-88
2023/07/23 13:36:35;;;;;;;;;5.00;5.00;;;;;23.83;54.54;100721.56;4860368;29;47426;-88
2023/07/23 13:39:01;;;;;;;;;6.00;6.00;;;;;23.82;54.16;100727.84;4857043;29;45605;-87
2023/07/23 13:41:26;;;;;;;;;7.33;3.33;;;;;23.81;53.87;100725.34;4859494;29;45589;-87
2023/07/23 13:43:52;;;;;;;;;3.33;3.00;;;;;23.82;53.91;100719.03;4856348;29;45065;-87
2023/07/23 13:46:17;;;;;;;;;3.00;3.00;;;;;23.77;53.39;100714.16;4854641;29;45816;-89
2023/07/23 13:48:42;;;;;;;;;3.00;2.33;;;;;23.77;53.63;100714.16;4858259;29;45510;-87
2023/07/23 13:51:08;;;;;;;;;3.00;3.00;;;;;23.75;52.93;100716.13;4860592;29;45436;-88
2023/07/23 13:53:33;;;;;;;;;3.00;3.00;;;;;23.74;53.55;100709.97;4861715;29;45677;-88
2023/07/23 13:55:59;;;;;;;;;5.00;4.50;;;;;23.74;53.22;100707.31;4863445;29;46998;-89
2023/07/23 13:58:24;;;;;;;;;4.50;4.50;;;;;23.72;53.39;100706.63;4850744;29;45484;-88
2023/07/23 14:00:49;;;;;;;;;5.00;4.00;;;;;23.73;53.26;100708.31;4858534;29;45723;-90
2023/07/23 14:03:15;;;;;;;;;6.00;5.00;;;;;23.72;53.11;100721.72;4860141;29;45502;-90
2023/07/23 14:05:40;;;;;;;;;3.75;3.75;;;;;23.69;52.57;100719.34;4858526;29;45569;-90
2023/07/23 14:08:05;;;;;;;;;6.33;3.67;;;;;23.62;52.94;100719.91;4859960;29;45495;-90
2023/07/23 14:10:31;;;;;;;;;2.00;2.00;;;;;23.56;52.76;100717.81;4858259;29;45515;-90
2023/07/23 14:12:56;;;;;;;;;2.75;2.50;;;;;23.48;52.99;100717.69;4875172;29;45395;-91
2023/07/23 14:15:21;;;;;;;;;3.00;3.00;;;;;23.47;53.17;100711.53;4855646;29;47393;-89
2023/07/23 14:17:47;;;;;;;;;3.33;3.00;;;;;23.41;52.96;100705.97;4860373;29;45321;-91
2023/07/23 14:20:12;;;;;;;;;6.00;3.00;;;;;23.39;53.27;100702.59;4842806;29;45411;-90
2023/07/23 14:22:38;;;;;;;;;2.67;2.67;;;;;23.40;53.10;100707.78;4858458;29;45605;-90
2023/07/23 14:25:05;;;;;;;;;3.67;3.00;;;;;23.41;53.28;100703.31;4844110;29;45325;-91
2023/07/23 14:27:31;;;;;;;;;2.00;2.00;;;;;23.41;53.13;100698.00;4827200;29;45406;-90
2023/07/23 14:29:57;;;;;;;;;3.75;3.50;;;;;23.44;53.23;100718.94;4859726;29;45445;-91
2023/07/23 14:32:22;;;;;;;;;4.00;3.00;;;;;23.45;53.34;100702.88;4861246;29;45372;-91
2023/07/23 14:34:47;;;;;;;;;3.00;3.00;;;;;23.46;52.96;100685.97;4861059;29;45987;-90
2023/07/23 14:37:13;;;;;;;;;2.25;2.00;;;;;23.53;53.01;100694.22;4861094;29;45452;-90
2023/07/23 14:39:40;;;;;;;;;2.00;2.00;;;;;23.60;52.74;100684.69;4861338;29;45357;-88
2023/07/23 14:42:06;;;;;;;;;5.33;2.67;;;;;23.63;52.05;100678.25;4861557;29;45305;-87
2023/07/23 14:44:31;;;;;;;;;3.00;3.00;;;;;23.68;52.24;100683.97;4856306;29;46821;-89
2023/07/23 14:46:56;;;;;;;;;0.00;0.00;;;;;23.77;52.06;100669.00;4842366;29;45376;-87
2023/07/23 14:49:24;;;;;;;;;2.75;2.75;;;;;23.89;51.30;100670.50;4843534;29;45346;-91
2023/07/23 14:51:49;;;;;;;;;4.50;3.50;;;;;23.99;51.42;100662.50;4852481;29;45422;-89
2023/07/23 14:54:14;;;;;;;;;2.75;2.75;;;;;24.11;50.93;100659.69;4859705;29;45798;-89
2023/07/23 14:56:40;;;;;;;;;4.00;3.00;;;;;24.19;50.91;100645.66;4858497;29;45388;-90
2023/07/23 14:59:05;;;;;;;;;3.75;3.50;;;;;24.27;50.50;100643.97;4861190;29;45710;-91
2023/07/23 15:01:31;;;;;;;;;3.00;3.00;;;;;24.35;50.51;100648.50;4860717;29;45304;-90
2023/07/23 15:03:56;;;;;;;;;3.00;3.00;;;;;24.43;50.42;100647.78;4852119;29;46408;-91
2023/07/23 15:06:22;;;;;;;;;3.33;3.33;;;;;24.49;49.82;100639.19;4858607;29;45427;-89
2023/07/23 15:08:47;;;;;;;;;6.00;6.00;;;;;24.51;49.76;100629.25;4865370;29;45467;-90
2023/07/23 15:11:12;;;;;;;;;4.00;3.00;;;;;24.56;49.82;100623.47;4856146;29;45381;-90
2023/07/23 15:13:39;;;;;;;;;5.00;5.00;;;;;24.63;49.77;100634.38;4861037;29;45925;-90
2023/07/23 15:16:05;;;;;;;;;2.50;2.50;;;;;24.71;49.68;100633.63;4863074;29;45259;-90
2023/07/23 15:18:31;;;;;;;;;4.00;3.00;;;;;24.76;49.56;100629.50;4860903;29;45329;-89
2023/07/23 15:20:57;;;;;;;;;3.00;2.75;;;;;24.81;49.16;100623.75;4855868;29;45334;-90
2023/07/23 15:23:22;;;;;;;;;5.00;5.00;;;;;24.90;49.61;100622.03;4862460;29;45945;-89
2023/07/23 15:25:48;;;;;;;;;5.67;5.00;;;;;25.02;48.94;100623.47;4863186;29;45606;-89
2023/07/23 15:28:15;;;;;;;;;6.50;4.50;;;;;25.13;48.68;100622.38;4863724;29;45353;-90
2023/07/23 15:30:40;;;;;;;;;4.33;4.33;;;;;25.23;48.05;100614.31;4863901;29;44767;-90
2023/07/23 15:33:06;;;;;;;;;4.00;3.33;;;;;25.32;47.28;100610.72;4861341;29;45867;-91
2023/07/23 15:35:31;;;;;;;;;5.75;3.00;;;;;25.40;47.04;100614.44;4861909;29;45357;-91
2023/07/23 15:37:57;;;;;;;;;5.00;4.75;;;;;25.45;46.33;100604.13;4863732;29;45386;-90
2023/07/23 15:40:22;;;;;;;;;4.33;4.33;;;;;25.45;46.93;100602.31;4858471;29;46495;-91
2023/07/23 15:42:47;;;;;;;;;4.33;4.33;;;;;25.48;46.09;100609.16;4865593;29;45526;-89
2023/07/23 15:45:13;;;;;;;;;4.67;4.67;;;;;25.48;46.01;100606.50;4856408;29;45461;-90
2023/07/23 15:47:38;;;;;;;;;5.67;4.00;;;;;25.48;46.64;100587.84;4859230;29;45765;-91
2023/07/23 15:50:05;;;;;;;;;5.00;3.67;;;;;25.49;46.53;100603.69;4859831;29;45341;-90
2023/07/23 15:52:31;;;;;;;;;4.00;4.00;;;;;25.50;45.94;100593.84;4860022;29;46766;-90
2023/07/23 15:54:57;;;;;;;;;5.00;5.00;;;;;25.53;45.90;100593.53;4843587;29;49827;-91
2023/07/23 15:57:22;;;;;;;;;4.33;4.33;;;;;25.54;45.90;100592.56;4859601;29;45601;-91
2023/07/23 15:59:48;;;;;;;;;5.00;3.33;;;;;25.53;45.92;100590.88;4855534;29;45654;-91
2023/07/23 16:02:13;;;;;;;;;1.67;1.67;;;;;25.55;45.97;100578.25;4862559;29;45701;-91
2023/07/23 16:04:39;;;;;;;;;3.67;3.00;;;;;25.56;45.73;100587.09;4841733;29;45476;-90
2023/07/23 16:07:04;;;;;;;;;4.33;2.67;;;;;25.57;45.36;100592.28;4861917;29;45502;-91
2023/07/23 16:09:30;;;;;;;;;4.33;4.33;;;;;25.55;46.16;100580.09;4877809;29;45458;-91
2023/07/23 16:11:55;;;;;;;;;4.50;4.50;;;;;25.55;45.51;100591.56;4861410;29;48473;-91
2023/07/23 16:14:20;;;;;;;;;3.67;3.33;;;;;25.52;45.91;100575.88;4852699;29;45590;-90
2023/07/23 16:16:46;;;;;;;;;2.33;2.00;;;;;25.49;45.38;100578.84;4873963;29;46195;-90
2023/07/23 16:19:11;;;;;;;;;4.33;4.33;;;;;25.49;45.92;100577.03;4856123;29;45407;-90
2023/07/23 16:21:36;;;;;;;;;3.00;3.00;;;;;25.49;45.40;100576.19;4859655;29;45718;-91
2023/07/23 16:24:02;;;;;;;;;4.67;3.67;;;;;25.44;45.51;100566.03;4859731;29;45519;-90
2023/07/23 16:26:42;;;;;;;;;4.00;3.00;;;;;25.43;45.50;100563.50;4861291;29;45391;-90
2023/07/23 16:29:08;;;;;;;;;4.67;3.33;;;;;25.41;45.70;100568.16;4857336;29;45879;-90
2023/07/23 16:31:33;;;;;;;;;2.00;2.00;;;;;25.38;45.81;100569.31;4841483;29;45920;-89
2023/07/23 16:33:59;;;;;;;;;4.00;3.50;;;;;25.37;46.25;100562.31;4874219;29;45625;-89
2023/07/23 16:36:28;;;;;;;;;3.00;2.50;;;;;25.42;45.33;100552.03;4859302;29;45618;-91
2023/07/23 16:38:54;;;;;;;;;1.75;1.50;;;;;25.42;45.91;100548.53;4860945;29;45657;-90
2023/07/23 16:41:20;;;;;;;;;3.67;3.67;;;;;25.45;46.20;100557.03;4857619;29;45683;-90
2023/07/23 16:43:49;;;;;;;;;2.50;2.50;;;;;25.51;45.87;100560.91;4856689;29;45397;-90
2023/07/23 16:46:14;;;;;;;;;4.00;3.00;;;;;25.52;45.54;100559.06;4861224;29;45424;-90
2023/07/23 16:48:42;;;;;;;;;3.00;2.00;;;;;25.55;45.94;100564.94;4856294;29;45535;-90
2023/07/23 16:51:07;;;;;;;;;2.75;2.75;;;;;25.58;45.57;100564.63;4841184;29;47528;-90
2023/07/23 16:53:32;;;;;;;;;2.25;2.25;;;;;25.56;45.54;100560.44;4854027;29;45503;-89
2023/07/23 16:55:59;;;;;;;;;4.00;4.00;;;;;25.53;45.55;100563.38;4858580;29;45503;-90
2023/07/23 16:58:27;;;;;;;;;3.00;3.00;;;;;25.48;45.36;100569.19;4861155;29;45352;-90
2023/07/23 17:00:52;;;;;;;;;3.33;3.33;;;;;25.42;45.76;100573.34;4840799;29;46700;-90
2023/07/23 17:03:18;;;;;;;;;3.75;3.75;;;;;25.33;45.68;100566.28;4859669;29;45493;-91
2023/07/23 17:05:44;;;;;;;;;3.00;3.00;;;;;25.29;46.03;100570.25;4858060;29;45521;-91
2023/07/23 17:08:09;;;;;;;;;3.25;3.00;;;;;25.22;45.43;100578.84;4862107;29;45499;-89
2023/07/23 17:10:34;;;;;;;;;3.67;2.33;;;;;25.17;45.75;100559.00;4858244;29;47268;-91
2023/07/23 17:13:05;;;;;;;;;3.00;3.00;;;;;25.14;45.59;100559.34;4859384;29;45394;-88
2023/07/23 17:15:31;;;;;;;;;4.00;4.00;;;;;25.14;46.30;100551.34;4856919;29;45556;-88
2023/07/23 17:17:56;;;;;;;;;2.00;2.00;;;;;25.16;45.86;100552.84;4868238;29;45539;-88
2023/07/23 17:20:21;;;;;;;;;3.00;3.00;;;;;25.16;45.85;100560.84;4857169;29;45663;-89
2023/07/23 17:22:47;;;;;;;;;3.00;3.00;;;;;25.14;45.42;100557.53;4858535;29;45270;-88
2023/07/23 17:25:12;;;;;;;;;3.50;3.25;;;;;25.13;45.44;100552.34;4858425;29;45537;-87
2023/07/23 17:27:38;;;;;;;;;2.00;1.67;;;;;25.09;45.69;100552.63;4860189;29;46474;-88
2023/07/23 17:30:04;;;;;;;;;4.00;4.00;;;;;25.05;45.24;100551.28;4861269;29;45500;-89
2023/07/23 17:32:29;;;;;;;;;1.00;1.00;;;;;25.03;45.58;100547.94;4856825;29;45598;-88
2023/07/23 17:34:54;;;;;;;;;3.00;2.00;;;;;25.02;45.54;100554.25;4870879;29;45669;-87
2023/07/23 17:37:20;;;;;;;;;2.00;2.00;;;;;25.01;45.28;100543.75;4858699;29;46064;-88
2023/07/23 17:39:46;;;;;;;;;2.00;2.00;;;;;25.01;45.50;100551.75;4859021;29;47284;-89
2023/07/23 17:42:11;;;;;;;;;3.67;3.00;;;;;25.02;45.15;100554.25;4857277;29;46834;-88
2023/07/23 17:44:36;;;;;;;;;0.33;0.33;;;;;25.00;45.28;100545.59;4859226;29;45787;-88
2023/07/23 17:47:03;;;;;;;;;1.67;1.67;;;;;25.00;45.37;100542.09;4858246;29;46066;-87
2023/07/23 17:49:31;;;;;;;;;4.00;1.33;;;;;24.96;45.13;100549.56;4858173;29;46921;-88
2023/07/23 17:51:58;;;;;;;;;3.00;1.00;;;;;24.96;45.42;100538.91;4858877;29;45478;-88
2023/07/23 17:54:27;;;;;;;;;2.00;2.00;;;;;24.97;45.08;100531.75;4858244;29;45526;-86
2023/07/23 17:56:52;;;;;;;;;0.00;0.00;;;;;24.95;45.25;100526.59;4857613;29;45593;-87
2023/07/23 17:59:18;;;;;;;;;3.00;1.33;;;;;24.94;45.26;100522.25;4857572;29;45725;-87
2023/07/23 18:01:48;;;;;;;;;3.67;3.00;;;;;24.95;45.16;100530.06;4858289;29;45562;-87
2023/07/23 18:04:15;;;;;;;;;2.00;1.67;;;;;24.95;45.28;100531.94;4858225;29;45492;-90
2023/07/23 18:06:41;;;;;;;;;3.33;3.00;;;;;24.92;45.10;100532.22;4842729;29;45322;-89
2023/07/23 18:09:07;;;;;;;;;4.33;1.67;;;;;24.90;45.42;100521.72;4858261;29;45860;-90
2023/07/23 18:11:33;;;;;;;;;2.33;2.33;;;;;24.84;45.20;100522.34;4859335;29;45421;-90
2023/07/23 18:13:58;;;;;;;;;3.33;2.67;;;;;24.80;45.78;100523.59;4856443;29;45753;-90
2023/07/23 18:16:24;;;;;;;;;3.00;3.00;;;;;24.77;45.69;100524.75;4856769;29;45479;-91
2023/07/23 18:18:49;;;;;;;;;3.00;2.67;;;;;24.76;45.75;100524.94;4855718;29;48060;-90
2023/07/23 18:21:14;;;;;;;;;5.00;2.00;;;;;24.77;45.61;100523.94;4857817;29;45298;-91
2023/07/23 18:23:40;;;;;;;;;4.67;2.33;;;;;24.78;45.33;100521.13;4860163;29;45524;-90
2023/07/23 18:26:05;;;;;;;;;4.00;4.00;;;;;24.79;45.59;100516.63;4857244;29;45567;-89
2023/07/23 18:28:31;;;;;;;;;2.67;2.67;;;;;24.78;45.11;100522.94;4858986;29;46404;-91
2023/07/23 18:30:59;;;;;;;;;2.67;2.00;;;;;24.76;45.93;100528.41;4854815;29;45623;-90
2023/07/23 18:33:25;;;;;;;;;3.00;3.00;;;;;24.75;45.96;100521.41;4857189;29;45320;-91
2023/07/23 18:35:50;;;;;;;;;3.67;2.00;;;;;24.72;45.86;100521.75;4862110;29;44737;-91
2023/07/23 18:38:16;;;;;;;;;2.00;2.00;;;;;24.72;45.79;100515.56;4858384;29;45695;-90
2023/07/23 18:40:42;;;;;;;;;3.25;3.25;;;;;24.69;45.80;100509.59;4850864;29;45276;-89
2023/07/23 18:43:07;;;;;;;;;5.33;4.00;;;;;24.67;45.45;100505.41;4861038;29;45649;-90
2023/07/23 18:45:33;;;;;;;;;3.25;3.25;;;;;24.65;46.00;100502.88;4862763;29;45442;-90
2023/07/23 18:47:59;;;;;;;;;2.25;2.25;;;;;24.64;45.43;100503.03;4860960;29;45661;-89
2023/07/23 18:50:26;;;;;;;;;6.50;4.00;;;;;24.60;45.11;100497.19;4846714;29;45478;-90
2023/07/23 18:52:51;;;;;;;;;4.00;3.00;;;;;24.57;45.71;100502.81;4862638;29;45363;-90
2023/07/23 18:55:17;;;;;;;;;5.00;3.75;;;;;24.54;45.75;100506.59;4859192;29;45463;-90
2023/07/23 18:57:44;;;;;;;;;5.50;4.00;;;;;24.53;45.53;100515.56;4858236;29;45721;-90
2023/07/23 19:00:10;;;;;;;;;5.00;4.25;;;;;24.48;45.43;100499.25;4858964;29;45457;-90
2023/07/23 19:02:35;;;;;;;;;4.00;4.00;;;;;24.47;45.51;100510.03;4862696;29;45409;-90
2023/07/23 19:05:01;;;;;;;;;4.33;4.00;;;;;24.48;45.76;100506.41;4858267;29;45462;-90
2023/07/23 19:07:26;;;;;;;;;7.25;4.00;;;;;24.45;45.43;100504.03;4845878;29;46546;-90
2023/07/23 19:09:54;;;;;;;;;5.50;3.25;;;;;24.44;45.58;100505.84;4860878;29;45579;-90
2023/07/23 19:12:20;;;;;;;;;4.00;4.00;;;;;24.42;45.63;100492.72;4859326;29;45588;-90
2023/07/23 19:14:46;;;;;;;;;5.00;4.67;;;;;24.42;45.66;100497.19;4861016;29;45710;-90
2023/07/23 19:17:12;;;;;;;;;6.00;4.67;;;;;24.42;45.72;100506.03;4845735;29;46077;-89
2023/07/23 19:19:37;;;;;;;;;3.00;3.00;;;;;24.40;45.59;100500.00;4861800;29;45555;-91
2023/07/23 19:22:03;;;;;;;;;3.50;3.50;;;;;24.39;45.23;100492.19;4861922;29;45624;-89
2023/07/23 19:24:29;;;;;;;;;4.75;4.75;;;;;24.37;45.46;100489.69;4860515;29;45358;-90
2023/07/23 19:26:54;;;;;;;;;7.00;4.00;;;;;24.37;45.77;100495.00;4872812;29;46811;-89
2023/07/23 19:29:20;;;;;;;;;4.25;3.25;;;;;24.37;45.56;100478.19;4861686;29;45509;-90
2023/07/23 19:31:45;;;;;;;;;4.00;3.75;;;;;24.37;45.62;100483.50;4861237;29;45466;-91
2023/07/23 19:34:10;;;;;;;;;4.75;4.00;;;;;24.34;45.37;100475.88;4860142;29;45460;-90
2023/07/23 19:36:38;;;;;;;;;2.67;2.00;;;;;24.32;45.45;100483.13;4858817;29;45793;-90
2023/07/23 19:39:03;;;;;;;;;5.00;4.00;;;;;24.31;45.54;100481.47;4863025;29;45477;-91
2023/07/23 19:41:28;;;;;;;;;3.67;3.67;;;;;24.29;45.67;100486.94;4861648;29;45347;-90
2023/07/23 19:43:54;;;;;;;;;4.33;3.33;;;;;24.28;45.77;100494.09;4851704;29;45645;-88
2023/07/23 19:46:19;;;;;;;;;5.50;4.75;;;;;24.23;46.08;100479.56;4859153;29;45582;-89
2023/07/23 19:48:46;;;;;;;;;6.00;3.75;;;;;24.21;45.64;100476.22;4860354;29;45500;-90
2023/07/23 19:51:11;;;;;;;;;2.00;2.00;;;;;24.21;45.90;100481.56;4861059;29;45280;-91
2023/07/23 19:53:36;;;;;;;;;5.00;4.00;;;;;24.15;46.03;100478.50;4861005;29;45355;-90
2023/07/23 19:56:03;;;;;;;;;3.25;3.25;;;;;24.13;46.14;100475.19;4859100;29;46551;-90
2023/07/23 19:58:29;;;;;;;;;2.25;2.25;;;;;24.12;45.85;100475.31;4837913;29;45754;-91
2023/07/23 20:00:56;;;;;;;;;3.50;3.25;;;;;24.09;46.01;100472.94;4868385;29;45280;-90
2023/07/23 20:03:28;;;;;;;;;3.50;3.00;;;;;24.08;46.42;100477.44;4852507;29;46980;-90
2023/07/23 20:05:54;;;;;;;;;3.25;3.25;;;;;24.06;46.35;100475.91;4858025;29;45850;-89
2023/07/23 20:08:19;;;;;;;;;2.33;2.33;;;;;24.03;46.15;100482.34;4861203;29;45455;-90
2023/07/23 20:10:45;;;;;;;;;5.33;4.67;;;;;24.03;46.07;100485.00;4856696;29;45498;-90
2023/07/23 20:13:10;;;;;;;;;3.67;3.67;;;;;23.99;45.94;100486.28;4871472;29;45414;-90
2023/07/23 20:15:37;;;;;;;;;4.67;4.67;;;;;24.00;46.23;100483.47;4874512;29;47334;-90
2023/07/23 20:18:02;;;;;;;;;3.00;2.00;;;;;23.99;46.58;100484.47;4858189;29;45486;-89
2023/07/23 20:20:28;;;;;;;;;6.00;4.00;;;;;23.99;46.03;100486.28;4859329;29;45484;-89
2023/07/23 20:22:53;;;;;;;;;2.00;1.33;;;;;23.99;46.30;100488.94;4860396;29;45474;-90
2023/07/23 20:25:21;;;;;;;;;3.00;3.00;;;;;23.98;46.27;100489.94;4842533;29;45482;-89
2023/07/23 20:27:47;;;;;;;;;3.67;3.00;;;;;23.96;46.25;100494.53;4867091;29;45276;-90
2023/07/23 20:30:13;;;;;;;;;3.00;3.00;;;;;23.94;46.29;100483.22;4874308;29;45273;-91
2023/07/23 20:32:38;;;;;;;;;3.25;2.25;;;;;23.90;46.61;100488.00;4856346;29;45386;-90
2023/07/23 20:35:04;;;;;;;;;3.50;3.00;;;;;23.89;46.38;100494.31;4859969;29;46905;-89
2023/07/23 20:37:30;;;;;;;;;2.67;2.67;;;;;23.87;46.18;100491.81;4856952;29;45486;-90
2023/07/23 20:39:56;;;;;;;;;1.67;1.67;;;;;23.86;46.46;100491.94;4859452;29;45328;-89
2023/07/23 20:42:21;;;;;;;;;3.00;2.00;;;;;23.87;46.30;100496.25;4857374;29;45636;-90
2023/07/23 20:44:47;;;;;;;;;4.25;3.50;;;;;23.85;46.61;100501.75;4858878;29;46631;-90
2023/07/23 20:47:13;;;;;;;;;2.50;2.50;;;;;23.85;46.73;100496.44;4858544;29;45520;-90
2023/07/23 20:49:38;;;;;;;;;4.00;3.00;;;;;23.86;46.19;100499.91;4861091;29;45426;-90
2023/07/23 20:52:03;;;;;;;;;4.00;4.00;;;;;23.84;46.12;100496.59;4859536;29;45684;-90
2023/07/23 20:54:29;;;;;;;;;2.33;2.00;;;;;23.82;46.14;100495.88;4860754;29;46954;-89
2023/07/23 20:56:54;;;;;;;;;2.00;2.00;;;;;23.79;46.58;100490.88;4858521;29;45354;-91
2023/07/23 20:59:20;;;;;;;;;4.00;3.00;;;;;23.77;46.38;100491.00;4860172;29;45409;-90
2023/07/23 21:01:45;;;;;;;;;4.00;4.00;;;;;23.77;46.47;100485.69;4854746;29;46036;-89
2023/07/23 21:04:13;;;;;;;;;5.75;3.25;;;;;23.81;46.21;100487.09;4863645;29;46682;-90
2023/07/23 21:06:38;;;;;;;;;2.50;2.00;;;;;23.83;46.21;100481.63;4859571;29;45576;-90
2023/07/23 21:09:03;;;;;;;;;1.67;1.33;;;;;23.80;45.70;100484.56;4857975;29;45444;-91
2023/07/23 21:11:29;;;;;;;;;2.00;2.00;;;;;23.76;46.05;100487.50;4857521;29;45431;-90
2023/07/23 21:13:54;;;;;;;;;4.33;2.00;;;;;23.75;46.12;100483.19;4857051;29;45827;-90
2023/07/23 21:16:20;;;;;;;;;2.67;2.67;;;;;23.74;46.13;100484.19;4873632;29;45503;-90
2023/07/23 21:18:46;;;;;;;;;3.75;3.00;;;;;23.72;46.29;100478.19;4855309;29;45460;-90
2023/07/23 21:21:11;;;;;;;;;3.00;2.33;;;;;23.70;46.12;100487.28;4860392;29;45741;-90
2023/07/23 21:23:37;;;;;;;;;3.67;3.33;;;;;23.69;45.84;100496.25;4858354;29;47259;-90
2023/07/23 21:26:02;;;;;;;;;4.00;3.00;;;;;23.66;45.93;100501.84;4863173;29;45399;-90
2023/07/23 21:28:29;;;;;;;;;3.00;2.67;;;;;23.64;45.96;100501.97;4860870;29;45562;-90
2023/07/23 21:30:54;;;;;;;;;3.33;3.33;;;;;23.63;46.04;100489.69;4860979;29;45690;-90
